Honobia, OK (74549)

9:02 AM CDT on July 06, 2015 (GMT -0500)
Kerr | | Change Station
CLOSE
Current Station
Airport
Location: Poteau,
Elevation: 453 ft
Nearby Weather Stations

Elev 453 ft 35.02 °N, 94.62 °W | Updated 7 minutes ago

Mostly Cloudy
Mostly Cloudy
81 °F
Feels Like 85 °F
N
12
Wind Variable Wind from South
Gusts 17 mph

Today
High -- | Low -- °F
--% Chance of Precip.
Yesterday
High -- | Low -- °F
Precip. -- in
6:12 AM 8:35 PM
Waning Gibbous, 75% visible
Pressure 30.03 in
Visibility 10.0 miles
Clouds Scattered Clouds 2700 ft
Scattered Clouds 4000 ft
Scattered Clouds 4900 ft
Heat Index 85 °F
Dew Point 72 °F
Humidity 75%
Rainfall 0.00 in
Snow Depth Not available.
UV 3 out of 12
Pollen 3.70 out of 12
Air Quality Not available.
Flu Activity Not available.
METAR KRKR 061355Z AUTO 19010G15KT 10SM SCT027 SCT040 SCT049 27/22 A3003 RMK AO2 LTG DSNT E T02710223

More Conditions Fewer Conditions

Pressure 30.03 in
Visibility 10.0 miles
Clouds Scattered Clouds 2700 ft
Scattered Clouds 4000 ft
Scattered Clouds 4900 ft
Heat Index 85 °F
Dew Point 72 °F
Humidity 75%
Rainfall 0.00 in
Snow Depth Not available.
UV 3 out of 12
Pollen 3.70 out of 12
Air Quality Not available.
Flu Activity Not available.
METAR KRKR 061355Z AUTO 19010G15KT 10SM SCT027 SCT040 SCT049 27/22 A3003 RMK AO2 LTG DSNT E T02710223

More Conditions Fewer Conditions

10-Day Weather Forecast

×

Almanac

Astronomy

Jul. 06, 2015 Rise Set
Actual Time
Civil Twilight
Nautical Twilight
Astronomical Twilight
Moon
Length of Visible Light
Length of Day
Tomorrow will be .
, % of the Moon is Illuminated

Today's Extremes

State Highs State Lows

Community

WunderPhotos

Upload Photos

1,835,558 photos uploaded!

WunderBlogs® & News

Nearby

Air Quality

  Air Quality AQ Index Pollutant
Not available.

Snow Depth

Station Depth Elevation

Earthquake Activity

City Distance Mag. Time & Date
Minimum magnitude displayed is 2.5.

Coastal Water Temperatures

Place Temperature

Stations

Nearby Weather Stations

Station Location Temp. Windchill Dew Point Humidity Wind Precip. Elev Updated Type